createdAt,value
2023-02-11T00:02:21.779Z,14.60
2023-02-11T00:07:31.696Z,13.45
2023-02-11T00:12:39.705Z,12.38
2023-02-11T00:17:46.596Z,12.13
2023-02-11T00:22:54.844Z,12.82
2023-02-11T00:28:01.272Z,12.32
2023-02-11T00:33:08.028Z,12.23
2023-02-11T00:38:15.901Z,12.52
2023-02-11T00:43:22.269Z,11.30
2023-02-11T00:48:30.379Z,10.45
2023-02-11T00:53:38.960Z,9.40
2023-02-11T00:58:45.443Z,8.98
2023-02-11T01:03:51.987Z,9.55
2023-02-11T01:09:08.810Z,10.40
2023-02-11T01:14:15.293Z,10.30
2023-02-11T01:19:21.508Z,9.75
2023-02-11T01:24:29.193Z,9.45
2023-02-11T01:29:35.456Z,10.95
2023-02-11T01:34:41.753Z,10.15
2023-02-11T01:39:49.480Z,11.27
2023-02-11T01:44:59.415Z,11.70
2023-02-11T01:50:06.520Z,11.80
2023-02-11T01:55:38.245Z,11.00
2023-02-11T02:00:44.573Z,12.00
2023-02-11T02:05:57.724Z,9.82
2023-02-11T02:11:06.753Z,8.93
2023-02-11T02:22:21.367Z,9.07
2023-02-11T02:27:42.956Z,9.40
2023-02-11T02:33:23.131Z,9.55
2023-02-11T02:38:36.706Z,9.65
2023-02-11T02:43:48.208Z,9.43
2023-02-11T02:48:57.383Z,8.75
2023-02-11T02:54:31.385Z,8.45
2023-02-11T02:59:51.768Z,8.60
2023-02-11T03:05:08.164Z,9.73
2023-02-11T03:10:21.338Z,8.98
2023-02-11T03:15:32.259Z,9.98
2023-02-11T03:20:43.893Z,9.60
2023-02-11T03:25:57.715Z,10.07
2023-02-11T03:31:16.359Z,9.43
2023-02-11T03:36:30.224Z,10.35
2023-02-11T03:41:37.301Z,10.75
2023-02-11T03:46:50.383Z,11.30
2023-02-11T03:51:59.836Z,10.90
2023-02-11T03:57:06.398Z,12.18
2023-02-11T04:02:12.918Z,11.68
2023-02-11T04:07:20.824Z,13.43
2023-02-11T04:12:26.994Z,11.82
2023-02-11T04:17:33.461Z,13.52
2023-02-11T04:22:41.106Z,13.68
2023-02-11T04:27:47.271Z,12.90
2023-02-11T04:32:54.534Z,12.75
2023-02-11T04:38:02.035Z,14.40
2023-02-11T04:43:08.549Z,13.15
2023-02-11T04:48:14.882Z,13.75
2023-02-11T04:53:22.827Z,14.27
2023-02-11T04:58:29.167Z,13.85
2023-02-11T05:03:35.400Z,13.77
2023-02-11T05:08:43.222Z,12.57
2023-02-11T05:13:50.167Z,13.75
2023-02-11T05:18:56.921Z,14.07
2023-02-11T05:24:04.636Z,14.25
2023-02-11T05:29:11.110Z,13.02
2023-02-11T05:34:17.666Z,13.88
2023-02-11T05:39:25.555Z,13.80
2023-02-11T05:44:32.073Z,16.13
2023-02-11T05:49:38.772Z,15.07
2023-02-11T05:54:46.815Z,13.35
2023-02-11T05:59:53.358Z,15.32
2023-02-11T06:05:00.008Z,14.95
2023-02-11T06:10:09.616Z,13.48
2023-02-11T06:15:15.847Z,16.27
2023-02-11T06:20:22.814Z,14.70
2023-02-11T06:25:30.781Z,15.18
2023-02-11T06:30:38.206Z,15.38
2023-02-11T06:35:44.569Z,14.88
2023-02-11T06:40:52.663Z,15.68
2023-02-11T06:45:58.872Z,15.00
2023-02-11T06:51:06.826Z,15.50
2023-02-11T06:56:17.631Z,16.70
2023-02-11T07:01:25.342Z,15.40
2023-02-11T07:06:31.621Z,15.95
2023-02-11T07:11:39.410Z,15.73
2023-02-11T07:16:45.868Z,16.00
2023-02-11T07:21:52.770Z,16.98
2023-02-11T07:27:00.669Z,16.95
2023-02-11T07:32:07.667Z,16.08
2023-02-11T07:37:14.149Z,17.42
2023-02-11T07:42:22.126Z,16.85
2023-02-11T07:47:28.572Z,16.73
2023-02-11T07:52:34.793Z,16.50
2023-02-11T07:57:42.710Z,17.60
2023-02-11T08:02:49.160Z,17.70
2023-02-11T08:07:56.171Z,16.67
2023-02-11T08:13:03.884Z,17.30
2023-02-11T08:18:10.191Z,17.38
2023-02-11T08:23:16.344Z,17.25
2023-02-11T08:28:24.063Z,16.60
2023-02-11T08:33:30.317Z,16.85
2023-02-11T08:38:36.619Z,18.00
2023-02-11T08:43:45.541Z,17.98
2023-02-11T08:48:52.018Z,17.38
2023-02-11T08:53:58.986Z,18.70
2023-02-11T08:59:07.408Z,16.95
2023-02-11T09:04:13.655Z,15.85
2023-02-11T09:09:20.266Z,17.65
2023-02-11T09:14:28.858Z,17.08
2023-02-11T09:19:36.340Z,19.40
2023-02-11T09:24:42.435Z,17.70
2023-02-11T09:29:54.259Z,19.08
2023-02-11T09:35:01.195Z,18.55
2023-02-11T09:40:09.206Z,17.98
2023-02-11T09:45:21.993Z,18.58
2023-02-11T09:50:35.687Z,18.40
2023-02-11T09:55:46.856Z,18.92
2023-02-11T10:01:06.768Z,18.63
2023-02-11T10:06:47.785Z,19.50
2023-02-11T10:12:12.730Z,19.65
2023-02-11T10:17:34.070Z,19.65
2023-02-11T10:22:44.852Z,19.33
2023-02-11T10:27:53.238Z,20.33
2023-02-11T10:33:08.833Z,19.55
2023-02-11T10:38:15.296Z,19.90
2023-02-11T10:43:27.953Z,21.00
2023-02-11T10:48:46.928Z,19.88
2023-02-11T10:54:21.573Z,19.52
2023-02-11T10:59:32.523Z,19.83
2023-02-11T11:04:45.225Z,20.48
2023-02-11T11:09:56.031Z,20.45
2023-02-11T11:15:16.738Z,21.02
2023-02-11T11:20:29.642Z,20.73
2023-02-11T11:25:37.765Z,20.67
2023-02-11T11:30:45.909Z,20.20
2023-02-11T11:36:08.166Z,14.70
2023-02-11T11:41:26.893Z,21.63
2023-02-11T11:46:37.934Z,20.13
2023-02-11T11:51:53.678Z,20.75
2023-02-11T11:57:06.825Z,19.33
2023-02-11T12:03:11.544Z,21.58
2023-02-11T12:08:30.383Z,17.70
2023-02-11T12:14:02.587Z,19.48
2023-02-11T12:19:44.349Z,18.83
2023-02-11T12:25:18.535Z,19.42
2023-02-11T12:31:05.544Z,19.73
2023-02-11T12:36:23.218Z,19.45
2023-02-11T12:42:08.101Z,19.02
2023-02-11T12:47:24.544Z,18.15
2023-02-11T12:52:49.685Z,19.05
2023-02-11T12:58:00.871Z,18.20
2023-02-11T13:03:15.657Z,18.83
2023-02-11T13:08:28.039Z,19.63
2023-02-11T13:13:47.925Z,18.42
2023-02-11T13:19:04.165Z,17.08
2023-02-11T13:31:30.465Z,19.50
2023-02-11T13:36:37.929Z,18.08
2023-02-11T13:41:52.476Z,18.02
2023-02-11T13:47:06.429Z,18.92
2023-02-11T13:52:26.560Z,18.30
2023-02-11T13:57:40.525Z,17.75
2023-02-11T14:03:51.604Z,19.48
2023-02-11T14:09:32.485Z,19.25
2023-02-11T14:15:20.706Z,18.30
2023-02-11T14:20:48.452Z,16.47
2023-02-11T14:26:11.727Z,17.92
2023-02-11T14:31:24.645Z,17.60
2023-02-11T14:37:02.920Z,16.90
2023-02-11T14:42:22.689Z,12.55
2023-02-11T14:47:39.298Z,16.45
2023-02-11T14:52:49.269Z,15.85
2023-02-11T16:12:27.524Z,10.43
2023-02-11T16:17:36.959Z,10.40
2023-02-11T16:22:50.282Z,9.85
2023-02-11T16:28:00.654Z,11.30
2023-02-11T16:33:09.190Z,9.85
2023-02-11T16:38:21.697Z,10.80
2023-02-11T16:43:35.316Z,10.80
2023-02-11T16:48:49.088Z,10.45
2023-02-11T16:53:59.153Z,10.00
2023-02-11T17:00:25.859Z,9.77
2023-02-11T17:05:54.235Z,9.50
2023-02-11T17:11:06.023Z,10.32
2023-02-11T17:16:25.823Z,10.60
2023-02-11T17:21:36.831Z,10.38
2023-02-11T17:26:47.981Z,10.07
2023-02-11T17:33:36.106Z,9.68
2023-02-11T17:53:40.320Z,9.32
2023-02-11T17:58:53.838Z,9.27
2023-02-11T18:04:05.304Z,9.38
2023-02-11T18:09:16.992Z,8.60
2023-02-11T18:14:26.128Z,8.57
2023-02-11T18:19:38.547Z,8.85
2023-02-11T18:24:54.346Z,8.57
2023-02-11T18:30:08.349Z,7.95
2023-02-11T18:43:32.371Z,6.97
2023-02-11T18:48:45.798Z,8.32
2023-02-11T18:53:56.910Z,7.47
2023-02-11T18:59:11.010Z,6.30
2023-02-11T19:04:21.630Z,7.43
2023-02-11T19:09:33.111Z,6.47
2023-02-11T19:14:46.799Z,8.32
2023-02-11T19:19:56.578Z,7.85
2023-02-11T19:33:19.471Z,7.47
2023-02-11T19:38:29.724Z,6.60
2023-02-11T19:43:39.361Z,7.85
2023-02-11T19:48:58.144Z,6.90
2023-02-11T19:59:19.023Z,6.95
2023-02-11T20:04:34.710Z,5.40
2023-02-11T20:09:44.553Z,6.53
2023-02-11T20:14:56.194Z,5.65
2023-02-11T20:20:12.899Z,5.40
2023-02-11T20:33:36.150Z,6.68
2023-02-11T20:41:42.156Z,5.85
2023-02-11T20:48:00.156Z,4.93
2023-02-11T20:53:18.583Z,6.32
2023-02-11T20:58:43.851Z,5.47
2023-02-11T21:04:07.991Z,5.13
2023-02-11T21:09:31.512Z,5.38
2023-02-11T21:14:52.832Z,5.15
2023-02-11T21:20:10.471Z,4.93
2023-02-11T21:25:23.269Z,3.60
2023-02-11T21:30:39.193Z,2.72
2023-02-11T21:35:49.451Z,1.67
2023-02-11T21:41:05.579Z,2.03
2023-02-11T21:46:22.155Z,1.48
2023-02-11T21:51:30.728Z,1.35
2023-02-11T21:56:39.699Z,1.30
2023-02-11T22:01:53.810Z,1.10
2023-02-11T22:07:00.947Z,1.00
2023-02-11T22:12:10.210Z,1.13
2023-02-11T22:17:18.958Z,1.65
2023-02-11T22:27:32.802Z,1.83
2023-02-11T22:32:42.939Z,1.70
2023-02-11T22:37:50.091Z,1.92
2023-02-11T22:42:56.859Z,1.90
2023-02-11T22:48:04.897Z,3.30
2023-02-11T22:53:11.767Z,1.27
2023-02-11T22:58:19.194Z,1.15
2023-02-11T23:03:28.547Z,1.30
2023-02-11T23:08:36.038Z,1.00
2023-02-11T23:13:44.624Z,1.50
2023-02-11T23:18:52.871Z,0.73
2023-02-11T23:24:02.111Z,1.05
2023-02-11T23:29:08.955Z,0.90
2023-02-11T23:34:20.738Z,0.85
2023-02-11T23:39:27.813Z,0.70
2023-02-11T23:44:34.852Z,0.93
2023-02-11T23:49:42.972Z,1.08
2023-02-11T23:54:50.072Z,0.77
2023-02-11T23:59:57.146Z,0.80
